createdAt,value
2018-09-04T00:00:54.050Z,19.80
2018-09-04T00:03:23.557Z,19.70
2018-09-04T00:05:56.615Z,19.70
2018-09-04T00:08:26.448Z,19.60
2018-09-04T00:10:59.300Z,19.60
2018-09-04T00:13:28.826Z,19.60
2018-09-04T00:16:06.331Z,19.50
2018-09-04T00:18:35.708Z,19.50
2018-09-04T00:21:05.321Z,19.50
2018-09-04T00:23:34.983Z,19.50
2018-09-04T00:26:12.365Z,19.40
2018-09-04T00:28:41.806Z,19.40
2018-09-04T00:31:11.452Z,19.40
2018-09-04T00:33:40.778Z,19.30
2018-09-04T00:36:18.562Z,19.30
2018-09-04T00:38:47.771Z,19.30
2018-09-04T00:41:17.107Z,19.30
2018-09-04T00:43:46.939Z,19.30
2018-09-04T00:46:19.690Z,19.20
2018-09-04T00:48:49.584Z,19.20
2018-09-04T00:51:20.121Z,19.20
2018-09-04T00:53:49.365Z,19.20
2018-09-04T00:56:22.503Z,19.20
2018-09-04T00:58:52.346Z,19.20
2018-09-04T01:01:25.771Z,19.20
2018-09-04T01:03:55.226Z,19.20
2018-09-04T01:06:28.155Z,19.20
2018-09-04T01:08:58.049Z,19.10
2018-09-04T01:11:30.922Z,19.10
2018-09-04T01:14:00.349Z,19.20
2018-09-04T01:16:31.557Z,19.20
2018-09-04T01:19:01.170Z,19.10
2018-09-04T01:21:34.408Z,19.20
2018-09-04T01:24:03.866Z,19.20
2018-09-04T01:26:36.899Z,19.20
2018-09-04T01:29:06.654Z,19.20
2018-09-04T01:31:39.606Z,19.20
2018-09-04T01:34:09.369Z,19.20
2018-09-04T01:36:41.294Z,19.10
2018-09-04T01:39:11.864Z,19.20
2018-09-04T01:41:44.509Z,19.20
2018-09-04T01:44:13.996Z,19.10
2018-09-04T01:46:46.977Z,19.10
2018-09-04T01:49:16.375Z,19.10
2018-09-04T01:51:49.967Z,19.10
2018-09-04T01:54:19.236Z,19.10
2018-09-04T01:56:52.308Z,19.10
2018-09-04T01:59:22.228Z,19.10
2018-09-04T02:01:55.305Z,19.10
2018-09-04T02:04:24.586Z,19.10
2018-09-04T02:06:58.027Z,19.10
2018-09-04T02:09:27.881Z,19.10
2018-09-04T02:12:00.803Z,19.10
2018-09-04T02:14:30.956Z,19.00
2018-09-04T02:17:03.994Z,19.00
2018-09-04T02:19:33.282Z,19.00
2018-09-04T02:22:06.957Z,19.00
2018-09-04T02:24:36.169Z,19.00
2018-09-04T02:27:12.587Z,19.00
2018-09-04T02:29:42.120Z,19.00
2018-09-04T02:32:14.875Z,19.00
2018-09-04T02:34:44.119Z,18.90
2018-09-04T02:37:15.339Z,18.90
2018-09-04T02:39:44.530Z,18.90
2018-09-04T02:42:16.958Z,18.90
2018-09-04T02:44:46.668Z,18.90
2018-09-04T02:47:19.676Z,18.80
2018-09-04T02:49:49.775Z,18.80
2018-09-04T02:52:23.058Z,18.80
2018-09-04T02:54:52.525Z,18.80
2018-09-04T02:57:25.673Z,18.70
2018-09-04T02:59:55.359Z,18.70
2018-09-04T03:02:28.239Z,18.70
2018-09-04T03:04:57.471Z,18.70
2018-09-04T03:07:29.268Z,18.60
2018-09-04T03:09:59.094Z,18.60
2018-09-04T03:12:31.852Z,18.60
2018-09-04T03:15:01.497Z,18.60
2018-09-04T03:17:33.970Z,18.50
2018-09-04T03:20:03.512Z,18.50
2018-09-04T03:22:36.585Z,18.50
2018-09-04T03:25:05.918Z,18.50
2018-09-04T03:27:38.902Z,18.40
2018-09-04T03:30:08.204Z,18.40
2018-09-04T03:32:42.157Z,18.40
2018-09-04T03:35:11.892Z,18.40
2018-09-04T03:37:44.759Z,18.40
2018-09-04T03:40:14.109Z,18.40
2018-09-04T03:42:51.253Z,18.40
2018-09-04T03:45:20.706Z,18.30
2018-09-04T03:47:50.403Z,18.30
2018-09-04T03:50:21.293Z,18.40
2018-09-04T03:52:54.061Z,18.40
2018-09-04T03:55:23.202Z,18.40
2018-09-04T03:57:54.955Z,18.40
2018-09-04T04:00:24.154Z,18.40
2018-09-04T04:02:57.712Z,18.40
2018-09-04T04:05:27.230Z,18.40
2018-09-04T04:08:01.028Z,18.40
2018-09-04T04:10:30.300Z,18.40
2018-09-04T04:13:04.720Z,18.50
2018-09-04T04:15:34.363Z,18.50
2018-09-04T04:18:07.566Z,18.50
2018-09-04T04:20:37.070Z,18.50
2018-09-04T04:23:10.681Z,18.50
2018-09-04T04:25:40.063Z,18.50
2018-09-04T04:28:17.146Z,18.60
2018-09-04T04:30:46.614Z,18.60
2018-09-04T04:33:16.144Z,18.60
2018-09-04T04:35:45.531Z,18.60
2018-09-04T04:38:18.052Z,18.60
2018-09-04T04:40:47.602Z,18.60
2018-09-04T04:43:24.382Z,18.60
2018-09-04T04:45:53.637Z,18.50
2018-09-04T04:48:22.996Z,18.50
2018-09-04T04:50:52.598Z,18.50
2018-09-04T04:53:25.948Z,18.50
2018-09-04T04:55:55.205Z,18.50
2018-09-04T04:58:28.219Z,18.50
2018-09-04T05:00:57.966Z,18.50
2018-09-04T05:03:30.786Z,18.50
2018-09-04T05:06:00.119Z,18.60
2018-09-04T05:08:33.459Z,18.60
2018-09-04T05:11:02.857Z,18.60
2018-09-04T05:13:35.848Z,18.60
2018-09-04T05:16:05.726Z,18.60
2018-09-04T05:18:38.352Z,18.60
2018-09-04T05:21:07.754Z,18.60
2018-09-04T05:23:41.975Z,18.60
2018-09-04T05:26:11.257Z,18.70
2018-09-04T05:28:44.300Z,18.70
2018-09-04T05:31:13.998Z,18.60
2018-09-04T05:33:46.960Z,18.70
2018-09-04T05:36:16.627Z,18.60
2018-09-04T05:38:48.347Z,18.70
2018-09-04T05:41:17.527Z,18.60
2018-09-04T05:43:56.579Z,18.60
2018-09-04T05:46:43.618Z,18.70
2018-09-04T05:49:16.371Z,18.70
2018-09-04T05:51:46.238Z,18.70
2018-09-04T05:54:15.936Z,18.70
2018-09-04T05:56:45.380Z,18.70
2018-09-04T05:59:14.664Z,18.70
2018-09-04T06:01:44.326Z,18.80
2018-09-04T06:04:13.596Z,18.80
2018-09-04T06:06:42.843Z,18.90
2018-09-04T06:09:12.557Z,18.90
2018-09-04T06:11:42.204Z,19.00
2018-09-04T06:14:11.744Z,19.00
2018-09-04T06:16:41.974Z,19.00
2018-09-04T06:19:18.575Z,19.00
2018-09-04T06:21:48.809Z,19.00
2018-09-04T06:24:18.275Z,19.10
2018-09-04T06:26:47.639Z,19.10
2018-09-04T06:29:20.522Z,19.10
2018-09-04T06:31:50.179Z,19.10
2018-09-04T06:34:23.695Z,19.10
2018-09-04T06:36:53.416Z,19.10
2018-09-04T06:39:23.945Z,19.10
2018-09-04T06:41:54.299Z,19.10
2018-09-04T06:44:25.456Z,19.10
2018-09-04T06:46:54.840Z,19.10
2018-09-04T06:49:31.435Z,19.10
2018-09-04T06:52:00.919Z,19.10
2018-09-04T06:54:30.504Z,19.10
2018-09-04T06:56:59.849Z,19.10
2018-09-04T06:59:32.667Z,19.20
2018-09-04T07:02:01.873Z,19.20
2018-09-04T07:04:34.348Z,19.30
2018-09-04T07:07:04.106Z,19.40
2018-09-04T07:09:40.678Z,19.50
2018-09-04T07:12:10.045Z,19.50
2018-09-04T07:14:40.366Z,19.70
2018-09-04T07:17:10.047Z,19.80
2018-09-04T07:19:43.342Z,19.80
2018-09-04T07:22:13.940Z,19.90
2018-09-04T07:24:46.608Z,19.90
2018-09-04T07:27:15.887Z,19.90
2018-09-04T07:29:49.356Z,19.90
2018-09-04T07:32:18.623Z,19.90
2018-09-04T07:34:51.600Z,19.90
2018-09-04T07:37:21.191Z,19.90
2018-09-04T07:39:54.985Z,19.90
2018-09-04T07:42:24.220Z,19.90
2018-09-04T07:45:02.246Z,19.90
2018-09-04T07:47:31.522Z,19.90
2018-09-04T07:50:02.099Z,19.80
2018-09-04T07:52:31.494Z,19.80
2018-09-04T07:55:04.727Z,19.90
2018-09-04T07:57:34.017Z,19.90
2018-09-04T08:00:08.393Z,19.90
2018-09-04T08:02:38.065Z,20.00
2018-09-04T08:05:10.684Z,20.00
2018-09-04T08:07:40.180Z,20.10
2018-09-04T08:10:17.060Z,20.20
2018-09-04T08:12:46.413Z,20.20
2018-09-04T08:15:16.088Z,20.30
2018-09-04T08:17:45.300Z,20.40
2018-09-04T08:20:18.532Z,20.50
2018-09-04T08:22:48.326Z,20.50
2018-09-04T08:25:25.971Z,20.50
2018-09-04T08:27:55.689Z,20.60
2018-09-04T08:30:25.098Z,20.60
2018-09-04T08:32:54.535Z,20.70
2018-09-04T08:35:27.483Z,20.70
2018-09-04T08:38:01.406Z,20.60
2018-09-04T08:40:32.638Z,20.70
2018-09-04T08:43:03.182Z,20.60
2018-09-04T08:45:33.130Z,20.70
2018-09-04T08:48:04.335Z,20.80
2018-09-04T08:50:36.131Z,20.90
2018-09-04T08:53:05.534Z,21.00
2018-09-04T08:55:39.183Z,21.20
2018-09-04T08:58:11.825Z,21.30
2018-09-04T09:00:44.597Z,21.40
2018-09-04T09:03:13.998Z,21.60
2018-09-04T09:05:43.263Z,21.60
2018-09-04T09:08:13.025Z,21.80
2018-09-04T09:10:45.797Z,21.90
2018-09-04T09:13:15.152Z,22.10
2018-09-04T09:15:48.678Z,22.30
2018-09-04T09:18:17.934Z,22.40
2018-09-04T09:20:51.358Z,22.40
2018-09-04T09:23:23.267Z,22.30
2018-09-04T09:25:54.480Z,22.20
2018-09-04T09:28:23.823Z,22.10
2018-09-04T09:30:57.101Z,22.10
2018-09-04T09:33:28.649Z,22.10
2018-09-04T09:36:01.618Z,22.10
2018-09-04T09:45:20.343Z,22.10
2018-09-04T09:47:51.196Z,22.20
2018-09-04T09:50:21.699Z,22.20
2018-09-04T09:52:52.432Z,22.20
2018-09-04T09:55:21.747Z,22.10
2018-09-04T09:57:51.126Z,22.10
2018-09-04T10:00:25.815Z,22.10
2018-09-04T10:03:00.179Z,22.20
2018-09-04T10:05:29.545Z,22.30
2018-09-04T10:07:58.898Z,22.40
2018-09-04T10:10:28.386Z,22.30
2018-09-04T10:12:57.621Z,22.30
2018-09-04T10:15:27.656Z,22.30
2018-09-04T10:17:56.942Z,22.50
2018-09-04T10:20:26.761Z,22.70
2018-09-04T10:22:56.123Z,23.10
2018-09-04T10:25:29.101Z,23.60
2018-09-04T10:27:58.305Z,24.10
2018-09-04T10:30:29.701Z,24.50
2018-09-04T10:32:58.994Z,24.70
2018-09-04T10:35:32.400Z,24.70
2018-09-04T10:38:02.448Z,24.50
2018-09-04T10:40:40.531Z,24.40
2018-09-04T10:43:09.772Z,24.30
2018-09-04T10:45:44.642Z,24.10
2018-09-04T10:48:14.812Z,24.10
2018-09-04T10:50:44.096Z,24.10
2018-09-04T10:53:13.392Z,24.10
2018-09-04T10:55:43.060Z,24.00
2018-09-04T10:58:12.490Z,23.90
2018-09-04T11:00:48.945Z,23.60
2018-09-04T11:05:47.349Z,23.60
2018-09-04T11:08:16.620Z,23.70
2018-09-04T11:10:50.861Z,23.70
2018-09-04T11:13:20.363Z,23.90
2018-09-04T11:15:57.156Z,23.90
2018-09-04T11:18:27.639Z,23.80
2018-09-04T11:20:56.943Z,23.80
2018-09-04T11:26:01.640Z,24.10
2018-09-04T11:28:31.055Z,24.70
2018-09-04T11:31:03.171Z,25.00
2018-09-04T11:33:32.518Z,25.10
2018-09-04T11:36:06.443Z,25.50
2018-09-04T11:38:35.835Z,25.70
2018-09-04T11:41:08.883Z,26.20
2018-09-04T11:43:38.393Z,26.50
2018-09-04T11:46:15.337Z,26.60
2018-09-04T11:48:44.647Z,26.70
2018-09-04T11:51:14.358Z,27.10
2018-09-04T11:53:43.758Z,27.20
2018-09-04T11:56:19.916Z,27.20
2018-09-04T11:58:50.481Z,27.10
2018-09-04T12:01:22.317Z,26.70
2018-09-04T12:03:51.816Z,26.40
2018-09-04T12:06:22.026Z,26.20
2018-09-04T12:08:51.738Z,25.90
2018-09-04T12:11:24.496Z,25.60
2018-09-04T12:13:53.836Z,25.40
2018-09-04T12:16:30.681Z,25.20
2018-09-04T12:19:00.448Z,25.10
2018-09-04T12:21:30.148Z,25.00
2018-09-04T12:23:59.423Z,24.90
2018-09-04T12:26:36.173Z,24.90
2018-09-04T12:29:05.602Z,24.90
2018-09-04T12:31:35.055Z,25.00
2018-09-04T12:34:04.976Z,25.10
2018-09-04T12:36:38.307Z,25.20
2018-09-04T12:39:07.803Z,25.40
2018-09-04T12:41:40.030Z,25.80
2018-09-04T12:44:09.493Z,26.20
2018-09-04T12:46:42.277Z,26.50
2018-09-04T12:49:11.882Z,26.80
2018-09-04T12:51:48.744Z,27.00
2018-09-04T12:54:18.758Z,27.20
2018-09-04T12:56:48.296Z,27.30
2018-09-04T12:59:17.621Z,27.20
2018-09-04T13:01:54.270Z,27.00
2018-09-04T13:04:23.826Z,26.80
2018-09-04T13:06:55.533Z,26.70
2018-09-04T13:09:25.209Z,26.50
2018-09-04T13:11:57.890Z,26.20
2018-09-04T13:14:27.328Z,26.10
2018-09-04T13:17:05.656Z,26.00
2018-09-04T13:19:36.809Z,25.80
2018-09-04T13:22:06.244Z,26.00
2018-09-04T13:24:35.636Z,26.10
2018-09-04T13:27:06.118Z,26.20
2018-09-04T13:29:35.664Z,26.30
2018-09-04T13:32:12.655Z,26.40
2018-09-04T13:34:42.183Z,26.20
2018-09-04T13:37:15.212Z,26.20
2018-09-04T13:39:44.602Z,26.20
2018-09-04T13:42:16.383Z,26.20
2018-09-04T13:44:45.765Z,26.10
2018-09-04T13:47:18.319Z,26.20
2018-09-04T13:49:48.030Z,26.50
2018-09-04T13:52:20.920Z,26.70
2018-09-04T13:54:50.298Z,26.90
2018-09-04T13:57:28.139Z,26.90
2018-09-04T13:59:57.689Z,26.80
2018-09-04T14:02:27.534Z,26.60
2018-09-04T14:06:26.745Z,26.50
2018-09-04T14:08:56.270Z,26.30
2018-09-04T14:11:30.912Z,25.90
2018-09-04T14:14:00.633Z,25.60
2018-09-04T14:16:43.153Z,25.50
2018-09-04T14:19:03.561Z,25.30
2018-09-04T14:21:36.461Z,25.20
2018-09-04T14:24:05.947Z,25.10
2018-09-04T14:26:37.345Z,25.00
2018-09-04T14:29:07.260Z,24.90
2018-09-04T14:31:43.457Z,24.90
2018-09-04T14:34:13.365Z,24.90
2018-09-04T14:36:42.903Z,25.20
2018-09-04T14:39:12.152Z,25.30
2018-09-04T14:41:46.481Z,25.50
2018-09-04T14:44:15.886Z,25.80
2018-09-04T14:46:48.585Z,26.00
2018-09-04T14:49:18.323Z,26.10
2018-09-04T14:51:55.072Z,26.20
2018-09-04T14:54:24.392Z,26.30
2018-09-04T14:56:54.313Z,26.30
2018-09-04T14:59:23.708Z,26.30
2018-09-04T15:01:57.805Z,26.50
2018-09-04T15:04:27.122Z,26.50
2018-09-04T15:07:00.199Z,26.60
2018-09-04T15:09:30.594Z,26.70
2018-09-04T15:12:03.845Z,26.80
2018-09-04T15:14:34.605Z,26.80
2018-09-04T15:17:07.858Z,26.80
2018-09-04T15:19:37.339Z,26.80
2018-09-04T15:22:08.657Z,26.80
2018-09-04T15:24:38.017Z,26.70
2018-09-04T15:27:15.338Z,26.60
2018-09-04T15:29:44.737Z,26.40
2018-09-04T15:32:15.793Z,26.20
2018-09-04T15:34:46.599Z,26.10
2018-09-04T15:37:18.031Z,25.90
2018-09-04T15:39:48.334Z,25.70
2018-09-04T15:42:21.038Z,25.60
2018-09-04T15:44:51.126Z,25.50
2018-09-04T15:47:22.269Z,25.40
2018-09-04T15:49:51.845Z,25.30
2018-09-04T15:52:24.912Z,25.20
2018-09-04T15:54:54.372Z,25.20
2018-09-04T15:57:27.179Z,25.10
2018-09-04T16:02:58.754Z,25.10
2018-09-04T16:05:33.423Z,25.20
2018-09-04T16:08:03.374Z,25.20
2018-09-04T16:10:34.721Z,25.20
2018-09-04T16:13:04.361Z,25.20
2018-09-04T16:15:45.219Z,25.20
2018-09-04T16:18:16.272Z,25.30
2018-09-04T16:20:45.683Z,25.30
2018-09-04T16:23:15.117Z,25.30
2018-09-04T16:25:45.183Z,25.40
2018-09-04T16:28:14.500Z,25.40
2018-09-04T16:30:44.818Z,25.40
2018-09-04T16:33:14.656Z,25.40
2018-09-04T16:35:51.835Z,25.40
2018-09-04T16:38:21.532Z,25.30
2018-09-04T16:40:50.824Z,25.30
2018-09-04T16:43:20.246Z,25.20
2018-09-04T16:45:53.021Z,25.20
2018-09-04T16:48:22.313Z,25.20
2018-09-04T16:50:59.354Z,25.10
2018-09-04T16:59:25.379Z,24.90
2018-09-04T17:02:04.033Z,24.90
2018-09-04T17:04:33.439Z,24.90
2018-09-04T17:07:06.124Z,24.80
2018-09-04T17:09:35.392Z,24.80
2018-09-04T17:12:09.103Z,24.80
2018-09-04T17:14:38.639Z,24.80
2018-09-04T17:17:16.049Z,24.80
2018-09-04T17:19:45.800Z,24.80
2018-09-04T17:22:15.926Z,24.90
2018-09-04T17:24:45.194Z,24.90
2018-09-04T17:27:17.575Z,24.90
2018-09-04T17:29:46.920Z,24.80
2018-09-04T17:32:19.536Z,24.80
2018-09-04T17:34:49.149Z,24.70
2018-09-04T17:37:22.729Z,24.70
2018-09-04T17:39:52.051Z,24.50
2018-09-04T17:42:25.230Z,24.50
2018-09-04T17:44:54.876Z,24.40
2018-09-04T17:47:27.584Z,24.30
2018-09-04T17:49:56.891Z,24.20
2018-09-04T17:52:29.504Z,24.00
2018-09-04T17:54:59.109Z,23.80
2018-09-04T17:57:32.455Z,23.70
2018-09-04T18:00:01.787Z,23.60
2018-09-04T18:02:35.028Z,23.50
2018-09-04T18:05:04.699Z,23.30
2018-09-04T18:07:37.589Z,23.20
2018-09-04T18:10:07.620Z,23.20
2018-09-04T18:12:40.314Z,23.10
2018-09-04T18:15:09.677Z,23.00
2018-09-04T18:17:42.692Z,22.90
2018-09-04T18:20:13.157Z,22.80
2018-09-04T18:22:45.974Z,22.80
2018-09-04T18:25:15.338Z,22.70
2018-09-04T18:27:52.559Z,22.70
2018-09-04T18:30:22.014Z,22.60
2018-09-04T18:32:51.467Z,22.60
2018-09-04T18:35:21.328Z,22.50
2018-09-04T18:37:54.770Z,22.50
2018-09-04T18:40:25.279Z,22.50
2018-09-04T18:42:57.651Z,22.40
2018-09-04T18:45:42.164Z,22.40
2018-09-04T18:48:11.543Z,22.40
2018-09-04T18:50:40.965Z,22.30
2018-09-04T18:53:10.280Z,22.30
2018-09-04T18:55:40.098Z,22.20
2018-09-04T18:58:10.423Z,22.10
2018-09-04T19:00:39.771Z,22.00
2018-09-04T19:03:10.648Z,21.90
2018-09-04T19:05:40.109Z,21.90
2018-09-04T19:08:13.445Z,21.90
2018-09-04T19:10:43.152Z,21.90
2018-09-04T19:13:16.210Z,22.00
2018-09-04T19:15:45.614Z,21.90
2018-09-04T19:18:16.998Z,21.90
2018-09-04T19:20:46.331Z,21.90
2018-09-04T19:23:20.714Z,21.90
2018-09-04T19:25:50.113Z,21.90
2018-09-04T19:28:23.265Z,21.90
2018-09-04T19:30:53.190Z,21.90
2018-09-04T19:33:26.473Z,21.80
2018-09-04T19:35:55.857Z,21.80
2018-09-04T19:38:29.999Z,21.70
2018-09-04T19:40:59.648Z,21.70
2018-09-04T19:43:29.452Z,21.60
2018-09-04T19:45:59.110Z,21.60
2018-09-04T19:48:32.077Z,21.60
2018-09-04T19:51:01.480Z,21.60
2018-09-04T19:53:34.858Z,21.60
2018-09-04T19:56:06.058Z,21.60
2018-09-04T19:58:37.793Z,21.60
2018-09-04T20:01:07.680Z,21.70
2018-09-04T20:03:40.495Z,21.60
2018-09-04T20:06:11.003Z,21.60
2018-09-04T20:08:43.818Z,21.60
2018-09-04T20:11:13.982Z,21.60
2018-09-04T20:13:44.980Z,21.60
2018-09-04T20:16:14.389Z,21.60
2018-09-04T20:18:51.263Z,21.60
2018-09-04T20:21:26.003Z,21.60
2018-09-04T20:23:55.843Z,21.60
2018-09-04T20:26:25.659Z,21.60
2018-09-04T20:28:55.369Z,21.60
2018-09-04T20:31:24.696Z,21.60
2018-09-04T20:33:58.784Z,21.60
2018-09-04T20:36:28.803Z,21.50
2018-09-04T20:38:59.144Z,21.50
2018-09-04T20:41:28.536Z,21.50
2018-09-04T20:44:05.649Z,21.50
2018-09-04T20:46:35.478Z,21.40
2018-09-04T20:49:05.889Z,21.40
2018-09-04T20:51:35.683Z,21.30
2018-09-04T20:54:08.585Z,21.40
2018-09-04T20:56:37.962Z,21.40
2018-09-04T20:59:18.653Z,21.30
2018-09-04T21:01:58.770Z,21.30
2018-09-04T21:04:39.144Z,21.30
2018-09-04T21:07:13.455Z,21.30
2018-09-04T21:10:00.703Z,21.30
2018-09-04T21:12:30.018Z,21.20
2018-09-04T21:14:59.727Z,21.20
2018-09-04T21:17:29.113Z,21.20
2018-09-04T21:19:58.736Z,21.20
2018-09-04T21:22:28.526Z,21.20
2018-09-04T21:24:58.766Z,21.20
2018-09-04T21:27:28.089Z,21.20
2018-09-04T21:29:58.499Z,21.10
2018-09-04T21:32:29.621Z,21.20
2018-09-04T21:34:58.969Z,21.10
2018-09-04T21:37:33.091Z,21.10
2018-09-04T21:40:02.322Z,21.10
2018-09-04T21:42:34.293Z,21.10
2018-09-04T21:45:04.220Z,21.10
2018-09-04T21:47:37.258Z,21.10
2018-09-04T21:50:07.004Z,21.10
2018-09-04T21:52:39.068Z,21.10
2018-09-04T21:55:08.419Z,21.10
2018-09-04T21:57:44.702Z,21.00
2018-09-04T22:00:18.573Z,21.00
2018-09-04T22:02:47.893Z,21.00
2018-09-04T22:05:17.265Z,21.00
2018-09-04T22:07:48.045Z,21.00
2018-09-04T22:10:17.345Z,20.90
2018-09-04T22:12:50.969Z,20.90
2018-09-04T22:15:20.844Z,20.90
2018-09-04T22:17:54.043Z,20.90
2018-09-04T22:20:23.472Z,20.80
2018-09-04T22:22:56.306Z,20.80
2018-09-04T22:25:25.560Z,20.80
2018-09-04T22:27:59.040Z,20.70
2018-09-04T22:30:28.367Z,20.80
2018-09-04T22:33:01.217Z,20.80
2018-09-04T22:35:31.316Z,20.80
2018-09-04T22:38:05.210Z,20.70
2018-09-04T22:40:34.910Z,20.70
2018-09-04T22:43:08.057Z,20.70
2018-09-04T22:48:16.992Z,20.70
2018-09-04T22:50:52.076Z,20.70
2018-09-04T22:53:23.630Z,20.70
2018-09-04T22:55:53.164Z,20.60
2018-09-04T22:58:25.513Z,20.60
2018-09-04T23:00:54.746Z,20.60
2018-09-04T23:03:23.955Z,20.60
2018-09-04T23:05:55.464Z,20.50
2018-09-04T23:08:26.842Z,20.60
2018-09-04T23:10:56.166Z,20.50
2018-09-04T23:13:25.559Z,20.50
2018-09-04T23:15:54.765Z,20.50
2018-09-04T23:18:25.487Z,20.50
2018-09-04T23:20:54.950Z,20.50
2018-09-04T23:23:28.577Z,20.40
2018-09-04T23:25:57.890Z,20.50
2018-09-04T23:28:34.562Z,20.50
2018-09-04T23:31:03.892Z,20.50
2018-09-04T23:33:35.055Z,20.40
2018-09-04T23:36:08.284Z,20.40
2018-09-04T23:38:37.558Z,20.40
2018-09-04T23:41:07.611Z,20.40
2018-09-04T23:43:40.461Z,20.30
2018-09-04T23:46:09.708Z,20.40
2018-09-04T23:48:41.973Z,20.30
2018-09-04T23:51:11.698Z,20.30
2018-09-04T23:53:44.990Z,20.20
2018-09-04T23:56:14.182Z,20.20
2018-09-04T23:58:47.123Z,20.10
